Time;durP1;ratioP1;P1;durP2;ratioP2;P2;SDS_P1;SDS_P2;PMS_P1;PMS_P2;Temp;Humidity;BMP_temperature;BMP_pressure;BME280_temperature;BME280_humidity;BME280_pressure;Samples;Min_cycle;Max_cycle;Signal;HPM_P1;HPM_P2
2021/09/30 00:00:16;;;;;;;;;;;;;;;;;;5017534;28;20314;-87
2021/09/30 00:02:45;;;;;;;;;;;;;;;;;;5034366;28;19932;-89
2021/09/30 00:05:17;;;;;;;;;;;;;;;;;;5013483;28;20373;-88
2021/09/30 00:07:47;;;;;;;;;;;;;;;;;;5020103;28;20421;-87
2021/09/30 00:10:18;;;;;;;;;;;;;;;;;;5027986;28;19925;-89
2021/09/30 00:12:54;;;;;;;;;;;;;;;;;;5031148;28;19928;-88
2021/09/30 00:15:32;;;;;;;;;;;;;;;;;;5062168;28;19925;-86
2021/09/30 00:35:40;;;;;;;;;;;;;;;;;;5008743;28;20390;-85
2021/09/30 00:46:44;;;;;;;;;;;;;;;;;;5021411;28;19932;-89
2021/09/30 00:49:28;;;;;;;;;;;;;;;;;;5015744;28;20374;-84
2021/09/30 00:52:03;;;;;;;;;;;;;;;;;;5058578;28;19925;-87
2021/09/30 00:55:02;;;;;;;;;;;;;;;;;;5018770;28;20415;-84
2021/09/30 01:20:25;;;;;;;;;;;;;;;;;;5031925;28;19931;-86
2021/09/30 01:46:46;;;;;;;;;;;;;;;;;;5035186;28;19948;-89
2021/09/30 01:57:40;;;;;;;;;;;;;;;;;;4975785;28;19930;-88
2021/09/30 02:19:10;;;;;;;;;;;;;;;;;;5019879;28;19924;-89
2021/09/30 02:22:03;;;;;;;;;;;;;;;;;;5039256;28;19924;-88
2021/09/30 02:30:48;;;;;;;;;;;;;;;;;;5053720;28;19924;-86
2021/09/30 02:39:17;;;;;;;;;;;;;;;;;;5034788;28;19929;-91
2021/09/30 02:58:54;;;;;;;;;;;;;;;;;;5040236;28;19933;-90
2021/09/30 03:01:25;;;;;;;;;;;;;;;;;;5050856;28;19951;-88
2021/09/30 03:03:59;;;;;;;;;;;;;;;;;;5053272;28;19935;-87
2021/09/30 03:06:29;;;;;;;;;;;;;;;;;;5040337;28;19936;-91
2021/09/30 03:09:02;;;;;;;;;;;;;;;;;;5038536;28;19924;-86
2021/09/30 03:11:35;;;;;;;;;;;;;;;;;;5047170;28;19931;-85
2021/09/30 03:14:05;;;;;;;;;;;;;;;;;;5052772;28;20396;-86
2021/09/30 03:16:40;;;;;;;;;;;;;;;;;;5056230;28;19925;-85
2021/09/30 03:22:17;;;;;;;;;;;;;;;;;;5078519;28;19925;-87
2021/09/30 03:24:59;;;;;;;;;;;;;;;;;;5039771;28;20016;-89
2021/09/30 03:27:33;;;;;;;;;;;;;;;;;;5069081;28;19925;-90
2021/09/30 03:30:23;;;;;;;;;;;;;;;;;;5051500;28;19931;-88
2021/09/30 03:32:56;;;;;;;;;;;;;;;;;;5037043;28;20220;-87
2021/09/30 03:35:33;;;;;;;;;;;;;;;;;;5039013;28;19924;-88
2021/09/30 03:38:05;;;;;;;;;;;;;;;;;;5061045;28;19931;-87
2021/09/30 03:40:41;;;;;;;;;;;;;;;;;;5029396;28;19928;-90
2021/09/30 03:43:16;;;;;;;;;;;;;;;;;;5011774;28;19936;-88
2021/09/30 03:45:50;;;;;;;;;;;;;;;;;;5027710;28;19924;-87
2021/09/30 03:48:28;;;;;;;;;;;;;;;;;;5049004;28;19936;-88
2021/09/30 03:51:47;;;;;;;;;;;;;;;;;;5055521;28;19932;-90
2021/09/30 03:54:28;;;;;;;;;;;;;;;;;;5051620;28;19925;-88
2021/09/30 03:57:22;;;;;;;;;;;;;;;;;;5059094;28;20417;-88
2021/09/30 04:01:03;;;;;;;;;;;;;;;;;;5066072;28;19944;-85
2021/09/30 04:03:43;;;;;;;;;;;;;;;;;;5060786;28;19951;-89
2021/09/30 04:14:08;;;;;;;;;;;;;;;;;;5040293;28;19931;-90
2021/09/30 04:16:51;;;;;;;;;;;;;;;;;;5063486;28;19931;-89
2021/09/30 04:20:00;;;;;;;;;;;;;;;;;;5059593;28;19940;-93
2021/09/30 04:22:36;;;;;;;;;;;;;;;;;;5051556;28;19925;-88
2021/09/30 04:25:14;;;;;;;;;;;;;;;;;;5056923;28;19924;-90
2021/09/30 04:27:53;;;;;;;;;;;;;;;;;;5040069;28;19937;-88
2021/09/30 04:30:55;;;;;;;;;;;;;;;;;;5032166;28;20325;-89
2021/09/30 04:33:51;;;;;;;;;;;;;;;;;;5050640;28;19944;-92
2021/09/30 05:56:13;;;;;;;;;;;;;;;;;;5046331;28;19925;-87
2021/09/30 05:59:02;;;;;;;;;;;;;;;;;;5029532;28;19928;-89
2021/09/30 06:10:43;;;;;;;;;;;;;;;;;;5053298;28;19928;-87
2021/09/30 06:13:32;;;;;;;;;;;;;;;;;;5032130;28;19925;-86
2021/09/30 06:16:07;;;;;;;;;;;;;;;;;;5032704;28;19933;-84
2021/09/30 06:18:40;;;;;;;;;;;;;;;;;;5037252;28;19929;-87
2021/09/30 06:21:13;;;;;;;;;;;;;;;;;;5031818;28;19932;-87
2021/09/30 06:23:42;;;;;;;;;;;;;;;;;;5038322;28;19936;-83
2021/09/30 06:26:12;;;;;;;;;;;;;;;;;;5012370;28;19940;-83
2021/09/30 06:28:58;;;;;;;;;;;;;;;;;;5022445;28;19936;-88
2021/09/30 06:31:28;;;;;;;;;;;;;;;;;;5045374;28;19931;-86
2021/09/30 06:34:26;;;;;;;;;;;;;;;;;;5050125;28;19925;-88
2021/09/30 06:37:16;;;;;;;;;;;;;;;;;;5038022;28;19932;-90
2021/09/30 06:39:46;;;;;;;;;;;;;;;;;;5034690;28;19939;-86
2021/09/30 06:42:16;;;;;;;;;;;;;;;;;;5028761;28;19925;-84
2021/09/30 06:44:51;;;;;;;;;;;;;;;;;;5048688;28;19928;-86
2021/09/30 06:47:54;;;;;;;;;;;;;;;;;;5017096;28;19932;-84
2021/09/30 06:50:32;;;;;;;;;;;;;;;;;;5024692;28;19932;-86
2021/09/30 06:53:24;;;;;;;;;;;;;;;;;;5025444;28;19936;-87
2021/09/30 06:56:02;;;;;;;;;;;;;;;;;;5043468;28;19924;-84
2021/09/30 06:59:05;;;;;;;;;;;;;;;;;;4995438;28;19926;-84
2021/09/30 07:01:55;;;;;;;;;;;;;;;;;;5044199;28;19931;-87
2021/09/30 07:04:45;;;;;;;;;;;;;;;;;;5053885;28;19935;-86
2021/09/30 07:07:34;;;;;;;;;;;;;;;;;;5054661;28;19936;-84
2021/09/30 07:10:04;;;;;;;;;;;;;;;;;;5034976;28;19929;-83
2021/09/30 07:12:34;;;;;;;;;;;;;;;;;;5047863;28;19925;-85
2021/09/30 07:15:17;;;;;;;;;;;;;;;;;;5035214;23;19926;-83
2021/09/30 07:19:07;;;;;;;;;;;;;;;;;;4992352;28;19930;-85
2021/09/30 07:22:18;;;;;;;;;;;;;;;;;;4997867;28;19916;-83
2021/09/30 07:24:54;;;;;;;;;;;;;;;;;;4986713;28;19930;-84
2021/09/30 07:28:27;;;;;;;;;;;;;;;;;;4991671;28;19933;-85
2021/09/30 07:31:28;;;;;;;;;;;;;;;;;;4977710;28;20304;-85
2021/09/30 07:45:37;;;;;;;;;;;;;;;;;;4922082;29;19933;-85
2021/09/30 07:48:06;;;;;;;;;;;;;;;;;;4941366;29;19934;-86
2021/09/30 07:50:36;;;;;;;;;;;;;;;;;;4921453;29;19996;-83
2021/09/30 07:53:05;;;;;;;;;;;;;;;;;;4933821;29;19947;-83
2021/09/30 07:55:35;;;;;;;;;;;;;;;;;;4933041;29;19937;-86
2021/09/30 07:58:09;;;;;;;;;;;;;;;;;;4938154;29;19974;-85
2021/09/30 08:00:38;;;;;;;;;;;;;;;;;;4935119;29;19927;-83
2021/09/30 08:03:08;;;;;;;;;;;;;;;;;;4930197;29;19931;-86
2021/09/30 08:05:38;;;;;;;;;;;;;;;;;;4915372;29;19938;-83
2021/09/30 08:08:07;;;;;;;;;;;;;;;;;;4896578;29;19927;-84
2021/09/30 08:10:38;;;;;;;;;;;;;;;;;;4932008;29;19934;-83
2021/09/30 08:13:07;;;;;;;;;;;;;;;;;;4950347;28;20377;-84
2021/09/30 08:15:42;;;;;;;;;;;;;;;;;;4963438;28;20407;-84
2021/09/30 08:18:11;;;;;;;;;;;;;;;;;;5002619;28;19926;-88
2021/09/30 08:20:42;;;;;;;;;;;;;;;;;;4981174;28;20384;-83
2021/09/30 08:23:15;;;;;;;;;;;;;;;;;;4997600;28;19926;-85
2021/09/30 08:25:45;;;;;;;;;;;;;;;;;;4998063;28;19925;-85
2021/09/30 08:28:14;;;;;;;;;;;;;;;;;;4999461;28;19933;-86
2021/09/30 08:30:43;;;;;;;;;;;;;;;;;;4980471;28;19929;-83
2021/09/30 08:33:15;;;;;;;;;;;;;;;;;;5009302;28;20285;-83
2021/09/30 08:35:43;;;;;;;;;;;;;;;;;;4999509;28;19926;-86
2021/09/30 08:38:12;;;;;;;;;;;;;;;;;;4981023;28;19926;-84
2021/09/30 08:40:41;;;;;;;;;;;;;;;;;;5007800;28;19926;-83
2021/09/30 08:43:26;;;;;;;;;;;;;;;;;;5019235;28;20295;-85
2021/09/30 08:45:55;;;;;;;;;;;;;;;;;;4995944;28;20284;-84
2021/09/30 08:48:25;;;;;;;;;;;;;;;;;;4995593;28;19933;-84
2021/09/30 08:50:54;;;;;;;;;;;;;;;;;;5024242;28;19925;-83
2021/09/30 08:53:23;;;;;;;;;;;;;;;;;;5001862;28;20273;-84
2021/09/30 08:56:33;;;;;;;;;;;;;;;;;;4994048;28;19926;-85
2021/09/30 08:59:18;;;;;;;;;;;;;;;;;;4973664;28;19940;-84
2021/09/30 09:01:47;;;;;;;;;;;;;;;;;;4977394;28;19937;-89
2021/09/30 09:04:18;;;;;;;;;;;;;;;;;;5014262;28;20585;-83
2021/09/30 09:06:51;;;;;;;;;;;;;;;;;;4984316;28;19925;-87
2021/09/30 09:09:24;;;;;;;;;;;;;;;;;;4982441;28;19925;-84
2021/09/30 09:12:03;;;;;;;;;;;;;;;;;;4992442;28;20422;-86
2021/09/30 09:14:46;;;;;;;;;;;;;;;;;;4985222;28;19925;-84
2021/09/30 09:17:22;;;;;;;;;;;;;;;;;;4995931;28;19926;-83
2021/09/30 09:19:51;;;;;;;;;;;;;;;;;;4992185;28;19925;-88
2021/09/30 09:22:27;;;;;;;;;;;;;;;;;;4984109;28;20420;-84
2021/09/30 09:25:04;;;;;;;;;;;;;;;;;;5013030;28;19929;-87
2021/09/30 09:27:47;;;;;;;;;;;;;;;;;;4996454;28;19929;-88
2021/09/30 09:30:38;;;;;;;;;;;;;;;;;;4995742;28;19925;-84
2021/09/30 09:33:14;;;;;;;;;;;;;;;;;;4988408;28;20392;-86
2021/09/30 09:35:52;;;;;;;;;;;;;;;;;;5005125;28;20315;-85
2021/09/30 09:38:24;;;;;;;;;;;;;;;;;;4975415;28;20392;-87
2021/09/30 09:40:54;;;;;;;;;;;;;;;;;;5008265;28;19925;-86
2021/09/30 09:43:39;;;;;;;;;;;;;;;;;;5033171;28;19929;-91
2021/09/30 09:46:39;;;;;;;;;;;;;;;;;;4997333;28;20376;-84
2021/09/30 09:50:08;;;;;;;;;;;;;;;;;;4998600;28;19925;-83
2021/09/30 09:52:47;;;;;;;;;;;;;;;;;;5003427;28;19932;-82
2021/09/30 09:55:31;;;;;;;;;;;;;;;;;;4985246;28;19932;-85
2021/09/30 09:58:08;;;;;;;;;;;;;;;;;;4986593;28;19929;-82
2021/09/30 10:01:22;;;;;;;;;;;;;;;;;;5001730;28;19926;-86
2021/09/30 10:04:47;;;;;;;;;;;;;;;;;;5001271;28;19929;-84
2021/09/30 10:11:30;;;;;;;;;;;;;;;;;;5008296;28;20400;-83
2021/09/30 10:14:06;;;;;;;;;;;;;;;;;;5001935;28;19926;-83
2021/09/30 10:16:35;;;;;;;;;;;;;;;;;;5002017;28;19933;-83
2021/09/30 10:19:05;;;;;;;;;;;;;;;;;;4984204;28;19930;-82
2021/09/30 10:21:37;;;;;;;;;;;;;;;;;;4987433;28;19929;-81
2021/09/30 10:24:14;;;;;;;;;;;;;;;;;;4997930;28;19926;-81
2021/09/30 10:47:25;;;;;;;;;;;;;;;;;;5019368;28;19921;-83
2021/09/30 10:54:13;;;;;;;;;;;;;;;;;;5042256;28;19936;-80
2021/09/30 11:09:21;;;;;;;;;;;;;;;;;;5019024;28;19933;-82
2021/09/30 11:12:23;;;;;;;;;;;;;;;;;;5047363;28;20386;-82
2021/09/30 11:15:55;;;;;;;;;;;;;;;;;;5092167;22;19926;-81
2021/09/30 11:19:38;;;;;;;;;;;;;;;;;;5054218;28;19933;-81
2021/09/30 11:27:41;;;;;;;;;;;;;;;;;;4998159;28;19933;-82
2021/09/30 11:30:26;;;;;;;;;;;;;;;;;;5003768;28;19925;-82
2021/09/30 11:50:06;;;;;;;;;;;;;;;;;;5009719;28;19929;-85
2021/09/30 12:05:56;;;;;;;;;;;;;;;;;;5086796;28;19912;-84
2021/09/30 12:08:25;;;;;;;;;;;;;;;;;;5081266;28;19912;-86
2021/09/30 12:11:00;;;;;;;;;;;;;;;;;;5094132;28;19931;-81
2021/09/30 12:13:28;;;;;;;;;;;;;;;;;;5062967;28;19932;-82
2021/09/30 12:16:01;;;;;;;;;;;;;;;;;;5077621;28;19947;-82
2021/09/30 12:18:29;;;;;;;;;;;;;;;;;;5079771;28;20103;-82
2021/09/30 12:20:58;;;;;;;;;;;;;;;;;;5075445;28;19932;-81
2021/09/30 12:23:28;;;;;;;;;;;;;;;;;;5077265;28;19931;-84
2021/09/30 12:25:56;;;;;;;;;;;;;;;;;;5062349;28;19925;-85
2021/09/30 12:28:27;;;;;;;;;;;;;;;;;;5097989;28;19924;-85
2021/09/30 12:30:55;;;;;;;;;;;;;;;;;;5081430;28;19924;-83
2021/09/30 12:33:30;;;;;;;;;;;;;;;;;;5096543;28;19924;-81
2021/09/30 12:36:03;;;;;;;;;;;;;;;;;;5100147;28;19936;-83
2021/09/30 12:38:32;;;;;;;;;;;;;;;;;;5080576;28;19924;-83
2021/09/30 12:41:05;;;;;;;;;;;;;;;;;;5072862;28;20417;-82
2021/09/30 12:43:34;;;;;;;;;;;;;;;;;;5071363;28;19931;-84
2021/09/30 12:46:05;;;;;;;;;;;;;;;;;;5096451;28;19924;-82
2021/09/30 12:48:34;;;;;;;;;;;;;;;;;;5088649;28;19924;-87
2021/09/30 12:51:05;;;;;;;;;;;;;;;;;;5078598;28;19931;-86
2021/09/30 12:53:42;;;;;;;;;;;;;;;;;;5095485;28;19924;-83
2021/09/30 12:56:11;;;;;;;;;;;;;;;;;;5074159;28;19932;-82
2021/09/30 12:58:40;;;;;;;;;;;;;;;;;;5077186;28;19935;-83
2021/09/30 13:01:23;;;;;;;;;;;;;;;;;;5088249;28;19939;-81
2021/09/30 13:04:07;;;;;;;;;;;;;;;;;;5094277;28;19924;-81
2021/09/30 13:06:35;;;;;;;;;;;;;;;;;;5058850;28;19924;-81
2021/09/30 13:09:05;;;;;;;;;;;;;;;;;;5050161;28;20449;-82
2021/09/30 13:11:34;;;;;;;;;;;;;;;;;;5085865;28;19931;-81
2021/09/30 13:14:22;;;;;;;;;;;;;;;;;;5053284;28;20394;-84
2021/09/30 13:16:51;;;;;;;;;;;;;;;;;;5077072;28;19932;-83
2021/09/30 13:19:20;;;;;;;;;;;;;;;;;;5084108;28;19924;-82
2021/09/30 13:21:59;;;;;;;;;;;;;;;;;;5094304;28;19936;-84
2021/09/30 13:24:28;;;;;;;;;;;;;;;;;;5075386;28;19939;-81
2021/09/30 13:26:57;;;;;;;;;;;;;;;;;;5078519;28;19925;-82
2021/09/30 13:29:41;;;;;;;;;;;;;;;;;;5071303;28;19943;-82
2021/09/30 13:32:09;;;;;;;;;;;;;;;;;;5077941;28;20301;-82
2021/09/30 13:34:37;;;;;;;;;;;;;;;;;;5062679;28;20293;-82
2021/09/30 13:37:06;;;;;;;;;;;;;;;;;;5077637;28;19924;-82
2021/09/30 13:39:35;;;;;;;;;;;;;;;;;;5065110;28;19924;-82
2021/09/30 13:42:04;;;;;;;;;;;;;;;;;;5091154;28;19935;-82
2021/09/30 13:44:32;;;;;;;;;;;;;;;;;;5090268;28;19924;-83
2021/09/30 13:47:01;;;;;;;;;;;;;;;;;;5079802;28;19928;-82
2021/09/30 13:49:29;;;;;;;;;;;;;;;;;;5095166;28;20398;-83
2021/09/30 13:51:57;;;;;;;;;;;;;;;;;;5051567;28;19931;-82
2021/09/30 13:54:25;;;;;;;;;;;;;;;;;;5057256;28;19924;-82
2021/09/30 13:56:55;;;;;;;;;;;;;;;;;;5086929;28;19931;-82
2021/09/30 13:59:23;;;;;;;;;;;;;;;;;;5076115;28;19932;-82
2021/09/30 14:02:12;;;;;;;;;;;;;;;;;;5069587;28;20305;-83
2021/09/30 14:04:40;;;;;;;;;;;;;;;;;;5072644;28;19939;-81
2021/09/30 14:07:09;;;;;;;;;;;;;;;;;;5079577;28;19932;-82
2021/09/30 14:09:37;;;;;;;;;;;;;;;;;;5067143;28;20042;-82
2021/09/30 14:12:07;;;;;;;;;;;;;;;;;;5054631;28;20338;-81
2021/09/30 14:14:36;;;;;;;;;;;;;;;;;;5071576;28;19935;-84
2021/09/30 14:17:04;;;;;;;;;;;;;;;;;;5097267;28;19931;-84
2021/09/30 14:19:32;;;;;;;;;;;;;;;;;;5072166;28;19924;-83
2021/09/30 14:22:00;;;;;;;;;;;;;;;;;;5074111;28;20417;-85
2021/09/30 14:24:31;;;;;;;;;;;;;;;;;;5059133;28;19924;-86
2021/09/30 14:26:59;;;;;;;;;;;;;;;;;;5078200;28;19935;-85
2021/09/30 14:29:29;;;;;;;;;;;;;;;;;;5087762;28;19908;-88
2021/09/30 14:31:57;;;;;;;;;;;;;;;;;;5085964;28;19942;-89
2021/09/30 14:34:26;;;;;;;;;;;;;;;;;;5062212;28;19931;-85
2021/09/30 14:36:54;;;;;;;;;;;;;;;;;;5064021;28;19931;-82
2021/09/30 14:39:22;;;;;;;;;;;;;;;;;;5075792;28;20287;-82
2021/09/30 14:41:50;;;;;;;;;;;;;;;;;;5092546;28;20345;-81
2021/09/30 14:44:21;;;;;;;;;;;;;;;;;;5077186;28;19924;-82
2021/09/30 14:46:51;;;;;;;;;;;;;;;;;;5075310;28;19928;-81
2021/09/30 14:49:19;;;;;;;;;;;;;;;;;;5065993;28;19924;-83
2021/09/30 14:51:49;;;;;;;;;;;;;;;;;;5067297;28;19924;-85
2021/09/30 14:54:19;;;;;;;;;;;;;;;;;;5075544;28;19924;-82
2021/09/30 14:56:48;;;;;;;;;;;;;;;;;;5071168;28;19924;-82
2021/09/30 14:59:17;;;;;;;;;;;;;;;;;;5060499;28;19924;-82
2021/09/30 15:01:45;;;;;;;;;;;;;;;;;;5074842;28;19947;-84
2021/09/30 15:04:15;;;;;;;;;;;;;;;;;;5088161;28;19924;-82
2021/09/30 15:06:43;;;;;;;;;;;;;;;;;;5072882;28;20306;-82
2021/09/30 15:09:12;;;;;;;;;;;;;;;;;;5068568;28;19924;-83
2021/09/30 15:11:40;;;;;;;;;;;;;;;;;;5075627;28;19931;-86
2021/09/30 15:14:08;;;;;;;;;;;;;;;;;;5069096;28;19925;-82
2021/09/30 15:16:40;;;;;;;;;;;;;;;;;;5079922;28;19931;-81
2021/09/30 15:19:15;;;;;;;;;;;;;;;;;;5092339;28;19935;-81
2021/09/30 15:21:45;;;;;;;;;;;;;;;;;;5071915;28;19931;-81
2021/09/30 15:24:14;;;;;;;;;;;;;;;;;;5049205;28;19924;-82
2021/09/30 15:26:44;;;;;;;;;;;;;;;;;;5072246;28;19924;-82
2021/09/30 15:29:12;;;;;;;;;;;;;;;;;;5078345;28;19925;-84
2021/09/30 15:31:42;;;;;;;;;;;;;;;;;;5076619;28;19931;-82
2021/09/30 15:34:10;;;;;;;;;;;;;;;;;;5056669;28;19924;-82
2021/09/30 15:36:39;;;;;;;;;;;;;;;;;;5093386;28;20385;-83
2021/09/30 15:39:08;;;;;;;;;;;;;;;;;;5062116;28;19924;-82
2021/09/30 15:41:37;;;;;;;;;;;;;;;;;;5058913;28;20306;-84
2021/09/30 15:44:06;;;;;;;;;;;;;;;;;;5071936;28;19928;-82
2021/09/30 15:46:34;;;;;;;;;;;;;;;;;;5099753;28;19924;-84
2021/09/30 15:49:03;;;;;;;;;;;;;;;;;;5070106;28;19924;-85
2021/09/30 15:51:31;;;;;;;;;;;;;;;;;;5091721;28;19935;-86
2021/09/30 15:53:59;;;;;;;;;;;;;;;;;;5081866;28;20413;-85
2021/09/30 15:56:29;;;;;;;;;;;;;;;;;;5081259;28;19928;-84
2021/09/30 15:58:57;;;;;;;;;;;;;;;;;;5056194;28;19928;-82
2021/09/30 16:01:29;;;;;;;;;;;;;;;;;;5063170;28;19932;-87
2021/09/30 16:03:57;;;;;;;;;;;;;;;;;;5064347;28;20417;-82
2021/09/30 16:06:26;;;;;;;;;;;;;;;;;;5059640;28;19928;-82
2021/09/30 16:08:54;;;;;;;;;;;;;;;;;;5060376;28;19932;-86
2021/09/30 16:11:23;;;;;;;;;;;;;;;;;;5081909;28;19924;-82
2021/09/30 16:13:53;;;;;;;;;;;;;;;;;;5080252;28;19935;-82
2021/09/30 16:16:21;;;;;;;;;;;;;;;;;;5078419;28;19924;-81
2021/09/30 16:18:49;;;;;;;;;;;;;;;;;;5079307;28;19931;-82
2021/09/30 16:21:18;;;;;;;;;;;;;;;;;;5077007;28;20297;-86
2021/09/30 16:23:47;;;;;;;;;;;;;;;;;;5057450;28;19932;-83
2021/09/30 16:26:20;;;;;;;;;;;;;;;;;;5078689;28;20521;-82
2021/09/30 16:28:51;;;;;;;;;;;;;;;;;;5076322;28;19935;-87
2021/09/30 16:31:21;;;;;;;;;;;;;;;;;;5074736;28;19924;-82
2021/09/30 16:33:49;;;;;;;;;;;;;;;;;;5061556;28;19931;-84
2021/09/30 16:36:18;;;;;;;;;;;;;;;;;;5049621;28;19924;-82
2021/09/30 16:38:49;;;;;;;;;;;;;;;;;;5077931;28;19931;-82
2021/09/30 16:41:17;;;;;;;;;;;;;;;;;;5062788;28;19940;-85
2021/09/30 16:43:46;;;;;;;;;;;;;;;;;;5060467;28;19939;-82
2021/09/30 16:46:16;;;;;;;;;;;;;;;;;;5061640;28;19932;-86
2021/09/30 16:48:45;;;;;;;;;;;;;;;;;;5079239;28;19924;-85
2021/09/30 16:51:14;;;;;;;;;;;;;;;;;;5079074;28;19930;-82
2021/09/30 16:53:42;;;;;;;;;;;;;;;;;;5091519;28;19926;-90
2021/09/30 16:56:13;;;;;;;;;;;;;;;;;;5089965;28;19924;-82
2021/09/30 16:58:41;;;;;;;;;;;;;;;;;;5062957;28;19924;-87
2021/09/30 17:01:09;;;;;;;;;;;;;;;;;;5077765;28;20307;-86
2021/09/30 17:03:38;;;;;;;;;;;;;;;;;;5078972;28;19924;-85
2021/09/30 17:06:08;;;;;;;;;;;;;;;;;;5077738;28;19955;-84
2021/09/30 17:08:36;;;;;;;;;;;;;;;;;;5055169;28;19931;-83
2021/09/30 17:11:08;;;;;;;;;;;;;;;;;;5069369;28;19935;-82
2021/09/30 17:13:38;;;;;;;;;;;;;;;;;;5056182;28;19928;-82
2021/09/30 17:16:07;;;;;;;;;;;;;;;;;;5073506;28;19923;-85
2021/09/30 17:18:35;;;;;;;;;;;;;;;;;;5061499;28;20408;-83
2021/09/30 17:21:05;;;;;;;;;;;;;;;;;;5076074;28;20388;-84
2021/09/30 17:23:34;;;;;;;;;;;;;;;;;;5070775;28;19928;-82
2021/09/30 17:26:04;;;;;;;;;;;;;;;;;;5078863;28;19939;-82
2021/09/30 17:28:32;;;;;;;;;;;;;;;;;;5064472;28;20218;-82
2021/09/30 17:31:01;;;;;;;;;;;;;;;;;;5060060;28;20286;-86
2021/09/30 17:33:29;;;;;;;;;;;;;;;;;;5074441;28;19924;-84
2021/09/30 17:35:58;;;;;;;;;;;;;;;;;;5070474;28;20298;-83
2021/09/30 17:38:26;;;;;;;;;;;;;;;;;;5057821;28;19924;-82
2021/09/30 17:40:56;;;;;;;;;;;;;;;;;;5062448;28;19928;-87
2021/09/30 17:43:24;;;;;;;;;;;;;;;;;;5061004;28;19932;-83
2021/09/30 17:45:53;;;;;;;;;;;;;;;;;;5082633;28;19933;-87
2021/09/30 17:48:22;;;;;;;;;;;;;;;;;;5050496;28;19931;-85
2021/09/30 17:50:51;;;;;;;;;;;;;;;;;;5076453;28;19931;-81
2021/09/30 17:53:20;;;;;;;;;;;;;;;;;;5054829;28;20334;-81
2021/09/30 17:55:51;;;;;;;;;;;;;;;;;;5051083;28;19932;-81
2021/09/30 17:58:21;;;;;;;;;;;;;;;;;;5051411;28;20314;-82
2021/09/30 18:00:49;;;;;;;;;;;;;;;;;;5049951;28;19924;-86
2021/09/30 18:03:20;;;;;;;;;;;;;;;;;;5063145;28;20305;-88
2021/09/30 18:05:48;;;;;;;;;;;;;;;;;;5066070;28;19935;-83
2021/09/30 18:08:22;;;;;;;;;;;;;;;;;;5054811;28;19924;-83
2021/09/30 18:10:50;;;;;;;;;;;;;;;;;;5055335;28;20386;-84
2021/09/30 18:13:22;;;;;;;;;;;;;;;;;;5042421;28;20402;-82
2021/09/30 18:15:50;;;;;;;;;;;;;;;;;;5053423;28;19974;-84
2021/09/30 18:18:19;;;;;;;;;;;;;;;;;;5067198;28;19928;-83
2021/09/30 18:20:53;;;;;;;;;;;;;;;;;;5075732;28;19924;-89
2021/09/30 18:23:29;;;;;;;;;;;;;;;;;;5050868;28;19995;-82
2021/09/30 18:25:57;;;;;;;;;;;;;;;;;;5056056;28;20307;-82
2021/09/30 18:28:30;;;;;;;;;;;;;;;;;;5075014;28;19924;-83
2021/09/30 18:30:59;;;;;;;;;;;;;;;;;;5057310;28;19931;-87
2021/09/30 18:33:28;;;;;;;;;;;;;;;;;;5051331;28;20290;-82
2021/09/30 18:35:56;;;;;;;;;;;;;;;;;;5075177;28;19934;-86
2021/09/30 18:38:25;;;;;;;;;;;;;;;;;;5050034;28;19932;-81
2021/09/30 18:40:53;;;;;;;;;;;;;;;;;;5057740;28;20290;-86
2021/09/30 18:43:22;;;;;;;;;;;;;;;;;;5083506;28;20038;-84
2021/09/30 18:45:51;;;;;;;;;;;;;;;;;;5069575;28;19925;-87
2021/09/30 18:48:19;;;;;;;;;;;;;;;;;;5054338;28;19924;-86
2021/09/30 18:50:47;;;;;;;;;;;;;;;;;;5054681;28;20334;-83
2021/09/30 18:53:16;;;;;;;;;;;;;;;;;;5067668;28;19932;-86
2021/09/30 18:55:44;;;;;;;;;;;;;;;;;;5051250;28;19935;-85
2021/09/30 18:58:12;;;;;;;;;;;;;;;;;;5072916;28;19925;-83
2021/09/30 19:00:41;;;;;;;;;;;;;;;;;;5056669;28;19932;-83
2021/09/30 19:03:10;;;;;;;;;;;;;;;;;;5073370;28;19923;-83
2021/09/30 19:05:38;;;;;;;;;;;;;;;;;;5085887;28;19924;-85
2021/09/30 19:08:08;;;;;;;;;;;;;;;;;;5074729;28;20314;-83
2021/09/30 19:10:38;;;;;;;;;;;;;;;;;;5076068;28;19924;-83
2021/09/30 19:13:06;;;;;;;;;;;;;;;;;;5062060;28;19932;-83
2021/09/30 19:15:34;;;;;;;;;;;;;;;;;;5072121;28;19924;-89
2021/09/30 19:18:03;;;;;;;;;;;;;;;;;;5092567;28;19927;-91
2021/09/30 19:20:33;;;;;;;;;;;;;;;;;;5075539;28;19940;-86
2021/09/30 19:23:01;;;;;;;;;;;;;;;;;;5069142;28;19931;-85
2021/09/30 19:25:32;;;;;;;;;;;;;;;;;;5057687;28;19924;-88
2021/09/30 19:28:03;;;;;;;;;;;;;;;;;;5057776;28;19929;-83
2021/09/30 19:30:32;;;;;;;;;;;;;;;;;;5071250;28;19931;-83
2021/09/30 19:33:00;;;;;;;;;;;;;;;;;;5071058;28;19924;-83
2021/09/30 19:35:29;;;;;;;;;;;;;;;;;;5053898;28;19931;-84
2021/09/30 19:38:00;;;;;;;;;;;;;;;;;;5054004;28;19933;-88
2021/09/30 19:40:28;;;;;;;;;;;;;;;;;;5065979;28;20400;-85
2021/09/30 19:42:56;;;;;;;;;;;;;;;;;;5070363;28;20382;-83
2021/09/30 19:45:25;;;;;;;;;;;;;;;;;;5050962;28;19939;-85
2021/09/30 19:47:53;;;;;;;;;;;;;;;;;;5076595;28;19924;-90
2021/09/30 19:50:22;;;;;;;;;;;;;;;;;;5059112;28;19935;-84
2021/09/30 19:52:50;;;;;;;;;;;;;;;;;;5068357;28;19931;-85
2021/09/30 19:55:20;;;;;;;;;;;;;;;;;;5075333;28;19924;-83
2021/09/30 19:57:48;;;;;;;;;;;;;;;;;;5093960;28;19931;-86
2021/09/30 20:00:17;;;;;;;;;;;;;;;;;;5075950;28;19928;-83
2021/09/30 20:02:45;;;;;;;;;;;;;;;;;;5063091;28;19928;-83
2021/09/30 20:05:14;;;;;;;;;;;;;;;;;;5069645;28;19932;-87
2021/09/30 20:07:42;;;;;;;;;;;;;;;;;;5071385;28;19924;-83
2021/09/30 20:10:11;;;;;;;;;;;;;;;;;;5093876;28;19931;-83
2021/09/30 20:12:41;;;;;;;;;;;;;;;;;;5058170;28;20120;-87
2021/09/30 20:15:11;;;;;;;;;;;;;;;;;;5083400;28;19931;-85
2021/09/30 20:17:39;;;;;;;;;;;;;;;;;;5055078;28;19931;-83
2021/09/30 20:20:08;;;;;;;;;;;;;;;;;;5057174;28;19931;-86
2021/09/30 20:22:36;;;;;;;;;;;;;;;;;;5077832;28;19931;-88
2021/09/30 20:25:05;;;;;;;;;;;;;;;;;;5062921;28;19924;-90
2021/09/30 20:27:33;;;;;;;;;;;;;;;;;;5062593;28;19935;-86
2021/09/30 20:30:03;;;;;;;;;;;;;;;;;;5075126;28;19936;-83
2021/09/30 20:32:32;;;;;;;;;;;;;;;;;;5078035;28;19924;-86
2021/09/30 20:35:01;;;;;;;;;;;;;;;;;;5059918;28;19931;-88
2021/09/30 20:37:29;;;;;;;;;;;;;;;;;;5073310;28;19931;-90
2021/09/30 20:39:58;;;;;;;;;;;;;;;;;;5057965;28;19928;-85
2021/09/30 20:42:26;;;;;;;;;;;;;;;;;;5070267;28;19924;-84
2021/09/30 20:44:54;;;;;;;;;;;;;;;;;;5071208;28;19925;-92
2021/09/30 20:47:24;;;;;;;;;;;;;;;;;;5051818;28;19947;-83
2021/09/30 20:49:52;;;;;;;;;;;;;;;;;;5054786;28;20306;-85
2021/09/30 20:52:21;;;;;;;;;;;;;;;;;;5055253;28;19935;-84
2021/09/30 20:54:52;;;;;;;;;;;;;;;;;;5069079;28;19933;-85
2021/09/30 20:57:21;;;;;;;;;;;;;;;;;;5078653;28;19924;-86
2021/09/30 20:59:49;;;;;;;;;;;;;;;;;;5061906;28;19924;-87
2021/09/30 21:02:18;;;;;;;;;;;;;;;;;;5061952;28;19928;-87
2021/09/30 21:04:47;;;;;;;;;;;;;;;;;;5069930;28;20416;-85
2021/09/30 21:07:16;;;;;;;;;;;;;;;;;;5071091;28;20321;-86
2021/09/30 21:09:44;;;;;;;;;;;;;;;;;;5054717;28;19948;-83
2021/09/30 21:12:13;;;;;;;;;;;;;;;;;;5090778;28;19925;-83
2021/09/30 21:14:41;;;;;;;;;;;;;;;;;;5069494;28;20310;-83
2021/09/30 21:17:09;;;;;;;;;;;;;;;;;;5063305;28;20174;-88
2021/09/30 21:19:38;;;;;;;;;;;;;;;;;;5070887;28;20360;-89
2021/09/30 21:22:07;;;;;;;;;;;;;;;;;;5077200;28;19924;-88
2021/09/30 21:24:40;;;;;;;;;;;;;;;;;;5056873;28;19931;-86
2021/09/30 21:27:36;;;;;;;;;;;;;;;;;;5074699;28;19931;-85
2021/09/30 21:30:05;;;;;;;;;;;;;;;;;;5072137;28;19924;-89
2021/09/30 21:32:35;;;;;;;;;;;;;;;;;;5061300;28;19924;-90
2021/09/30 21:35:04;;;;;;;;;;;;;;;;;;5069587;28;20707;-84
2021/09/30 21:37:35;;;;;;;;;;;;;;;;;;5061804;28;20067;-94
2021/09/30 21:40:04;;;;;;;;;;;;;;;;;;5091996;28;19924;-92
2021/09/30 21:42:32;;;;;;;;;;;;;;;;;;5064963;28;19924;-83
2021/09/30 21:45:00;;;;;;;;;;;;;;;;;;5078250;28;20396;-84
2021/09/30 21:47:29;;;;;;;;;;;;;;;;;;5063113;28;19928;-89
2021/09/30 21:49:57;;;;;;;;;;;;;;;;;;5053497;28;19928;-89
2021/09/30 21:52:25;;;;;;;;;;;;;;;;;;5066988;28;19924;-86
2021/09/30 21:54:55;;;;;;;;;;;;;;;;;;5073619;28;20301;-85
2021/09/30 21:57:23;;;;;;;;;;;;;;;;;;5056951;28;20301;-87
2021/09/30 21:59:51;;;;;;;;;;;;;;;;;;5091142;28;19924;-89
2021/09/30 22:02:19;;;;;;;;;;;;;;;;;;5053416;28;19928;-87
2021/09/30 22:04:48;;;;;;;;;;;;;;;;;;5066659;28;19932;-88
2021/09/30 22:07:16;;;;;;;;;;;;;;;;;;5048251;28;19924;-91
2021/09/30 22:09:44;;;;;;;;;;;;;;;;;;5056039;28;19931;-84
2021/09/30 22:12:14;;;;;;;;;;;;;;;;;;5043770;28;20317;-83
2021/09/30 22:14:42;;;;;;;;;;;;;;;;;;5059184;28;19924;-89
2021/09/30 22:17:11;;;;;;;;;;;;;;;;;;5069932;28;19932;-84
2021/09/30 22:19:39;;;;;;;;;;;;;;;;;;5063874;28;19928;-86
2021/09/30 22:22:08;;;;;;;;;;;;;;;;;;5071508;28;19935;-89
2021/09/30 22:24:36;;;;;;;;;;;;;;;;;;5059361;28;19924;-85
2021/09/30 22:27:29;;;;;;;;;;;;;;;;;;5057966;28;19957;-86
2021/09/30 22:30:01;;;;;;;;;;;;;;;;;;5074409;28;20414;-90
2021/09/30 22:35:42;;;;;;;;;;;;;;;;;;5052994;28;19932;-88
2021/09/30 22:38:11;;;;;;;;;;;;;;;;;;5077433;28;19924;-87
2021/09/30 22:40:40;;;;;;;;;;;;;;;;;;5076960;28;19932;-86
2021/09/30 22:43:09;;;;;;;;;;;;;;;;;;5068094;28;19925;-86
2021/09/30 22:45:38;;;;;;;;;;;;;;;;;;5071801;28;20112;-92
2021/09/30 22:48:06;;;;;;;;;;;;;;;;;;5056182;28;20386;-83
2021/09/30 22:50:35;;;;;;;;;;;;;;;;;;5072771;28;20540;-86